Terminal Aerodrome Forecast
Issued by NWS

Home | Current Version | Previous Version | Text Only | Print | Product List | Glossary On
Versions: 1 2 3 4 5 6 7 8 9 10 11 12 13 14 15 16 17 18 19 20 21
000
FTUS42 KTBW 261740
TAFLAL
TAF
KLAL 261740Z 2618/2718 26012G20KT P6SM VCSH FEW020 BKN030
     FM262300 26011KT P6SM SCT040 SCT100 BKN250
     FM270500 VRB05KT 6SM BR SCT020 BKN100
     FM271400 32005KT P6SM VCSH SCT015 BKN100=

USA.gov is the U.S. government's official web portal to all federal, state and local government web resources and services.